createdAt,value
2019-04-30T00:04:40.103Z,11.13
2019-04-30T00:09:40.191Z,11.05
2019-04-30T00:14:42.257Z,10.99
2019-04-30T00:19:50.486Z,10.86
2019-04-30T00:24:50.786Z,10.79
2019-04-30T00:29:52.835Z,10.74
2019-04-30T00:34:55.645Z,10.61
2019-04-30T00:39:58.901Z,10.58
2019-04-30T00:45:06.670Z,10.57
2019-04-30T00:50:05.763Z,10.61
2019-04-30T00:55:09.125Z,10.59
2019-04-30T01:00:12.181Z,10.57
2019-04-30T01:05:16.953Z,10.44
2019-04-30T01:10:19.608Z,10.35
2019-04-30T01:15:22.980Z,10.33
2019-04-30T01:20:31.374Z,10.29
2019-04-30T01:25:30.654Z,10.28
2019-04-30T01:30:32.939Z,10.29
2019-04-30T01:35:34.963Z,10.26
2019-04-30T01:40:42.886Z,10.26
2019-04-30T01:45:45.280Z,10.22
2019-04-30T01:50:48.848Z,10.18
2019-04-30T01:55:56.500Z,10.08
2019-04-30T02:01:01.842Z,10.06
2019-04-30T02:06:03.974Z,10.03
2019-04-30T02:11:06.066Z,10.00
2019-04-30T02:16:08.666Z,9.98
2019-04-30T02:21:11.414Z,9.93
2019-04-30T02:26:13.731Z,9.85
2019-04-30T02:31:22.298Z,9.79
2019-04-30T02:36:43.638Z,9.73
2019-04-30T02:41:46.325Z,9.70
2019-04-30T02:46:50.527Z,9.62
2019-04-30T02:51:53.979Z,9.59
2019-04-30T02:57:05.847Z,9.48
2019-04-30T03:02:11.519Z,9.44
2019-04-30T03:07:11.862Z,9.42
2019-04-30T03:12:13.926Z,9.42
2019-04-30T03:17:51.139Z,9.37
2019-04-30T03:22:53.183Z,9.36
2019-04-30T03:27:55.248Z,9.26
2019-04-30T03:32:58.355Z,9.21
2019-04-30T03:38:01.857Z,9.13
2019-04-30T03:43:04.039Z,9.14
2019-04-30T03:48:06.119Z,9.17
2019-04-30T03:53:10.401Z,9.11
2019-04-30T03:58:12.221Z,9.12
2019-04-30T04:03:14.292Z,9.11
2019-04-30T04:08:29.201Z,9.01
2019-04-30T04:13:33.115Z,9.04
2019-04-30T04:18:34.927Z,9.01
2019-04-30T04:23:39.831Z,9.02
2019-04-30T04:28:43.555Z,9.01
2019-04-30T04:33:45.048Z,9.12
2019-04-30T04:38:50.409Z,9.18
2019-04-30T04:43:51.079Z,9.23
2019-04-30T04:48:53.328Z,9.33
2019-04-30T04:53:55.408Z,9.41
2019-04-30T04:58:59.990Z,9.48
2019-04-30T05:04:01.625Z,9.61
2019-04-30T05:09:05.176Z,9.66
2019-04-30T05:14:08.361Z,9.85
2019-04-30T05:19:11.298Z,12.64
2019-04-30T05:24:13.348Z,15.02
2019-04-30T05:29:15.519Z,16.79
2019-04-30T05:34:18.872Z,18.23
2019-04-30T05:39:21.071Z,19.51
2019-04-30T05:44:23.168Z,20.57
2019-04-30T05:49:25.381Z,21.51
2019-04-30T05:54:29.219Z,22.13
2019-04-30T05:59:31.522Z,22.96
2019-04-30T06:04:33.778Z,23.61
2019-04-30T06:09:50.866Z,24.27
2019-04-30T06:15:08.977Z,24.52
2019-04-30T06:20:18.421Z,24.79
2019-04-30T06:25:27.057Z,25.09
2019-04-30T06:30:19.902Z,25.34
2019-04-30T06:35:22.403Z,23.81
2019-04-30T06:40:24.501Z,25.50
2019-04-30T06:45:28.980Z,25.55
2019-04-30T06:50:31.285Z,24.75
2019-04-30T06:55:33.403Z,25.09
2019-04-30T07:00:36.643Z,24.92
2019-04-30T07:05:39.179Z,24.54
2019-04-30T07:10:53.038Z,23.98
2019-04-30T07:15:45.448Z,22.60
2019-04-30T07:20:48.665Z,21.79
2019-04-30T07:25:51.710Z,21.44
2019-04-30T07:31:07.587Z,20.72
2019-04-30T07:36:01.521Z,20.47
2019-04-30T07:41:02.074Z,19.69
2019-04-30T07:46:04.130Z,19.32
2019-04-30T07:51:06.487Z,19.24
2019-04-30T07:56:24.370Z,19.09
2019-04-30T08:01:15.760Z,19.01
2019-04-30T08:06:21.849Z,18.95
2019-04-30T08:11:26.227Z,18.98
2019-04-30T08:16:28.707Z,18.74
2019-04-30T08:21:30.740Z,18.64
2019-04-30T08:26:32.835Z,18.54
2019-04-30T08:31:34.919Z,18.47
2019-04-30T08:36:38.673Z,18.45
2019-04-30T08:41:40.938Z,18.38
2019-04-30T08:46:43.030Z,18.39
2019-04-30T08:51:45.130Z,18.21
2019-04-30T08:56:47.220Z,18.18
2019-04-30T09:01:49.327Z,18.30
2019-04-30T09:06:51.399Z,18.12
2019-04-30T09:11:55.763Z,17.75
2019-04-30T09:16:59.408Z,17.68
2019-04-30T09:22:01.433Z,17.61
2019-04-30T09:27:03.471Z,17.55
2019-04-30T09:32:05.529Z,17.62
2019-04-30T09:37:08.726Z,17.69
2019-04-30T09:42:10.954Z,17.87
2019-04-30T09:47:13.295Z,17.89
2019-04-30T09:52:15.486Z,17.99
2019-04-30T09:57:19.322Z,18.22
2019-04-30T10:02:21.512Z,18.33
2019-04-30T10:07:23.874Z,18.16
2019-04-30T10:12:26.247Z,18.26
2019-04-30T10:17:35.833Z,18.32
2019-04-30T10:22:39.886Z,18.51
2019-04-30T10:27:41.856Z,18.41
2019-04-30T10:32:43.894Z,18.47
2019-04-30T10:37:46.110Z,18.43
2019-04-30T10:42:48.889Z,18.72
2019-04-30T10:47:51.078Z,18.67
2019-04-30T10:52:53.174Z,18.73
2019-04-30T10:57:55.220Z,18.83
2019-04-30T11:02:59.238Z,19.02
2019-04-30T11:08:01.217Z,19.11
2019-04-30T11:13:03.662Z,19.25
2019-04-30T11:18:06.103Z,19.31
2019-04-30T11:23:14.478Z,19.37
2019-04-30T11:28:13.080Z,19.64
2019-04-30T11:33:15.756Z,19.67
2019-04-30T11:38:20.322Z,19.80
2019-04-30T11:43:22.200Z,19.76
2019-04-30T11:48:24.283Z,19.66
2019-04-30T11:53:28.811Z,19.56
2019-04-30T11:58:30.641Z,19.67
2019-04-30T12:03:32.979Z,19.57
2019-04-30T12:08:36.933Z,19.48
2019-04-30T12:13:39.016Z,19.64
2019-04-30T12:18:41.089Z,19.75
2019-04-30T12:23:43.188Z,19.64
2019-04-30T12:28:45.287Z,19.62
2019-04-30T12:33:47.309Z,19.66
2019-04-30T12:38:49.357Z,19.64
2019-04-30T12:43:51.588Z,19.62
2019-04-30T12:49:10.376Z,19.70
2019-04-30T12:54:38.213Z,19.71
2019-04-30T12:59:40.603Z,19.66
2019-04-30T13:04:42.744Z,19.66
2019-04-30T13:09:45.219Z,19.66
2019-04-30T13:14:53.915Z,19.76
2019-04-30T13:19:51.701Z,19.90
2019-04-30T13:24:53.830Z,19.95
2019-04-30T13:30:13.027Z,19.95
2019-04-30T13:35:15.250Z,19.95
2019-04-30T13:40:36.739Z,19.85
2019-04-30T13:45:38.909Z,19.81
2019-04-30T13:50:41.000Z,19.83
2019-04-30T13:55:45.879Z,19.89
2019-04-30T14:00:47.014Z,19.87
2019-04-30T14:05:51.510Z,19.88
2019-04-30T14:10:53.377Z,19.87
2019-04-30T14:15:55.505Z,19.83
2019-04-30T14:21:00.836Z,19.90
2019-04-30T14:26:01.723Z,19.85
2019-04-30T14:31:04.234Z,19.87
2019-04-30T14:36:06.350Z,19.75
2019-04-30T14:41:08.833Z,19.77
2019-04-30T14:46:31.499Z,19.75
2019-04-30T14:51:34.587Z,19.76
2019-04-30T14:56:45.507Z,19.80
2019-04-30T15:02:08.911Z,19.72
2019-04-30T15:07:11.170Z,19.71
2019-04-30T15:12:13.296Z,19.67
2019-04-30T15:17:15.384Z,19.72
2019-04-30T15:22:18.993Z,19.67
2019-04-30T15:27:21.246Z,19.64
2019-04-30T15:32:23.340Z,19.57
2019-04-30T15:37:25.388Z,19.51
2019-04-30T15:42:27.525Z,19.47
2019-04-30T15:47:29.611Z,19.39
2019-04-30T15:52:31.801Z,19.39
2019-04-30T15:57:35.836Z,19.40
2019-04-30T16:02:57.427Z,19.38
2019-04-30T16:08:09.259Z,19.39
2019-04-30T16:13:15.770Z,19.42
2019-04-30T16:18:19.590Z,19.50
2019-04-30T16:23:21.868Z,19.55
2019-04-30T16:28:23.917Z,19.58
2019-04-30T16:33:25.985Z,19.60
2019-04-30T16:38:28.940Z,19.63
2019-04-30T16:43:31.516Z,19.62
2019-04-30T16:48:33.583Z,19.64
2019-04-30T16:53:35.704Z,19.59
2019-04-30T16:58:55.803Z,19.60
2019-04-30T17:04:16.450Z,19.53
2019-04-30T17:09:32.797Z,19.48
2019-04-30T17:14:35.893Z,19.44
2019-04-30T17:19:39.338Z,19.35
2019-04-30T17:24:41.591Z,19.32
2019-04-30T17:29:43.628Z,19.23
2019-04-30T17:34:45.734Z,19.19
2019-04-30T17:39:49.170Z,19.09
2019-04-30T17:44:58.479Z,19.07
2019-04-30T17:49:56.056Z,18.97
2019-04-30T17:54:59.503Z,18.86
2019-04-30T18:00:15.890Z,18.76
2019-04-30T18:05:06.785Z,18.66
2019-04-30T18:10:11.040Z,18.54
2019-04-30T18:15:17.254Z,18.41
2019-04-30T18:20:33.497Z,18.28
2019-04-30T18:25:42.714Z,18.15
2019-04-30T18:30:44.875Z,17.99
2019-04-30T18:35:48.671Z,17.84
2019-04-30T18:40:50.868Z,17.71
2019-04-30T18:45:52.932Z,17.57
2019-04-30T18:50:55.061Z,17.44
2019-04-30T18:55:59.196Z,17.30
2019-04-30T19:01:01.467Z,17.17
2019-04-30T19:06:22.290Z,17.03
2019-04-30T19:11:30.304Z,16.92
2019-04-30T19:17:04.011Z,16.78
2019-04-30T19:22:06.403Z,16.63
2019-04-30T19:27:08.714Z,16.51
2019-04-30T19:32:10.823Z,16.40
2019-04-30T19:37:13.041Z,16.30
2019-04-30T19:42:15.086Z,16.20
2019-04-30T19:47:18.984Z,16.10
2019-04-30T19:52:21.305Z,16.01
2019-04-30T19:57:23.657Z,15.91
2019-04-30T20:02:25.730Z,15.82
2019-04-30T20:07:29.115Z,15.72
2019-04-30T20:12:31.307Z,15.64
2019-04-30T20:17:35.544Z,15.54
2019-04-30T20:22:38.940Z,15.45
2019-04-30T20:27:41.360Z,15.37
2019-04-30T20:32:43.457Z,15.27
2019-04-30T20:38:04.080Z,15.20
2019-04-30T20:43:06.147Z,15.13
2019-04-30T20:48:08.994Z,15.03
2019-04-30T20:53:11.167Z,14.98
2019-04-30T20:58:13.332Z,14.91
2019-04-30T21:03:15.417Z,14.85
2019-04-30T21:08:17.496Z,14.79
2019-04-30T21:13:19.588Z,14.74
2019-04-30T21:18:21.846Z,14.68
2019-04-30T21:23:23.943Z,14.61
2019-04-30T21:28:26.104Z,14.53
2019-04-30T21:33:35.285Z,14.49
2019-04-30T21:38:38.928Z,14.44
2019-04-30T21:43:42.431Z,14.39
2019-04-30T21:48:44.495Z,14.33
2019-04-30T21:53:46.602Z,14.29
2019-04-30T21:58:48.763Z,14.26
2019-04-30T22:03:50.945Z,14.20
2019-04-30T22:08:53.023Z,14.15
2019-04-30T22:13:55.097Z,14.11
2019-04-30T22:18:57.216Z,14.07
2019-04-30T22:23:59.300Z,14.01
2019-04-30T22:29:01.384Z,13.97
2019-04-30T22:34:03.738Z,13.93
2019-04-30T22:39:29.939Z,13.86
2019-04-30T22:44:32.401Z,13.80
2019-04-30T22:49:34.458Z,13.73
2019-04-30T22:54:36.622Z,13.70
2019-04-30T22:59:49.529Z,13.67
2019-04-30T23:04:44.546Z,13.65
2019-04-30T23:09:46.595Z,13.62
2019-04-30T23:14:48.683Z,13.58
2019-04-30T23:19:50.775Z,13.58
2019-04-30T23:24:52.815Z,13.56
2019-04-30T23:30:03.164Z,13.54
2019-04-30T23:35:00.390Z,13.53
2019-04-30T23:40:23.014Z,13.55
2019-04-30T23:45:25.357Z,13.52
2019-04-30T23:50:27.426Z,13.50
2019-04-30T23:55:29.505Z,13.51
